Hovedside
METAR-TAF:

METAR-TAF

Lufthavner :

José Martí internasjonale lufthavn

Havanna, Cuba

breddegrad: 22-59N, lengdegrad: 082-24W, høyde over havet: 59 m

Gjeldene værobservasjon

Denne rapporten ble laget for 23 minutter siden, klokken 07:55 UTC
Vind 3 kt fra Øst-nordøst
Temperatur 23°C
Luftfuktighet 100%
Trykk 1017 hPa
Sikt: 9000 m
Skyfri himmel

METAR: MUHA 190755Z 07003KT 9000 SKC 23/23 Q1017

Tid: 04:18 (08:18 UTC)

Varsel

Denne rapporten ble laget for 3 timer og 18 minutter siden, klokken 05:00 UTC
Varsel gyldig fra 19. klokken 06 UTC til 20. klokken 06 UTC
Vind 5 kt fra Øst
Sikt: 9000 m
Få skyer i en høyde av 3000 ft
Blir
fra 19. klokken 14 UTC til 19. klokken 16 UTC
Vind 13 kt fra Øst
Blir
fra 20. klokken 03 UTC til 20. klokken 05 UTC
Vind 3 kt fra skiftende retning

TAF: MUHA 190500Z 1906/2006 08005KT 9000 FEW030 BECMG 1914/1916 09013KT BECMG 2003/2005 VRB03KT

Værobservasjoner og værvarsel for over 4000 flyplasser (METAR- og TAF-rapporter).

Tilgjengelige stasjoner er representert av de røde og gule prikkene på kartet.

Hold musepekeren over prikken for å se navnet på stasjonen.

Klikk så for å se værobservasjoner og -varsler.

For å forandre kartet kan du klikke på den grønne knappen med svart kryss for å zoome inn, på den grønne knappen med strek for å zoome ut, eller på de grønne pilene for å se tilstøtende kart.


METAR-TAF: